createdAt,value
2022-10-18T00:01:27.236Z,4.93
2022-10-18T00:03:29.558Z,4.98
2022-10-18T00:05:31.796Z,4.85
2022-10-18T00:07:34.086Z,4.88
2022-10-18T00:09:39.479Z,4.82
2022-10-18T00:11:42.865Z,4.82
2022-10-18T00:13:45.116Z,4.73
2022-10-18T00:16:03.837Z,4.71
2022-10-18T00:18:11.162Z,4.73
2022-10-18T00:20:14.747Z,4.64
2022-10-18T00:22:16.969Z,4.76
2022-10-18T00:24:19.118Z,4.76
2022-10-18T00:26:27.596Z,4.77
2022-10-18T00:28:30.280Z,4.73
2022-10-18T00:30:32.472Z,4.81
2022-10-18T00:32:39.261Z,4.81
2022-10-18T00:34:41.564Z,4.83
2022-10-18T00:36:44.401Z,4.84
2022-10-18T00:38:49.787Z,4.91
2022-10-18T00:40:52.265Z,4.95
2022-10-18T00:42:54.474Z,5.02
2022-10-18T00:45:13.805Z,5.07
2022-10-18T00:47:18.166Z,5.10
2022-10-18T00:49:33.378Z,5.14
2022-10-18T00:51:45.105Z,5.16
2022-10-18T00:53:48.408Z,5.19
2022-10-18T00:55:51.222Z,5.12
2022-10-18T01:00:02.642Z,5.24
2022-10-18T01:02:07.234Z,5.24
2022-10-18T01:04:09.655Z,5.30
2022-10-18T01:06:12.052Z,5.33
2022-10-18T01:08:17.280Z,5.32
2022-10-18T01:10:41.345Z,5.32
2022-10-18T01:12:55.701Z,5.28
2022-10-18T01:15:10.646Z,5.24
2022-10-18T01:17:30.982Z,5.23
2022-10-18T01:19:51.653Z,5.23
2022-10-18T01:22:06.111Z,5.19
2022-10-18T01:24:31.029Z,5.20
2022-10-18T01:26:48.257Z,5.20
2022-10-18T01:29:11.148Z,5.21
2022-10-18T01:31:26.063Z,5.19
2022-10-18T01:33:56.841Z,5.19
2022-10-18T01:36:18.462Z,5.17
2022-10-18T01:38:23.500Z,5.13
2022-10-18T01:40:25.838Z,5.08
2022-10-18T01:42:28.132Z,5.12
2022-10-18T01:44:33.096Z,5.01
2022-10-18T01:46:36.409Z,5.11
2022-10-18T01:48:38.756Z,5.09
2022-10-18T01:50:40.882Z,5.16
2022-10-18T01:52:52.621Z,5.20
2022-10-18T01:54:56.093Z,5.22
2022-10-18T01:57:00.324Z,5.26
2022-10-18T01:59:16.557Z,5.21
2022-10-18T02:01:25.840Z,5.28
2022-10-18T02:03:29.751Z,5.29
2022-10-18T02:06:21.382Z,5.36
2022-10-18T02:08:47.182Z,5.20
2022-10-18T02:10:54.848Z,5.32
2022-10-18T02:13:00.169Z,5.33
2022-10-18T02:15:05.328Z,5.41
2022-10-18T02:17:11.199Z,5.39
2022-10-18T02:19:20.051Z,5.40
2022-10-18T02:21:25.157Z,5.39
2022-10-18T02:23:27.934Z,5.42
2022-10-18T02:25:32.776Z,5.39
2022-10-18T02:27:35.893Z,5.44
2022-10-18T02:29:38.995Z,5.45
2022-10-18T02:31:54.198Z,5.39
2022-10-18T02:34:02.747Z,5.36
2022-10-18T02:36:17.112Z,5.40
2022-10-18T02:38:21.193Z,5.17
2022-10-18T02:40:24.783Z,5.38
2022-10-18T02:42:34.533Z,5.45
2022-10-18T02:44:38.195Z,5.48
2022-10-18T02:46:40.732Z,5.40
2022-10-18T02:48:42.773Z,5.44
2022-10-18T02:50:44.779Z,5.43
2022-10-18T02:52:46.945Z,5.39
2022-10-18T02:54:48.975Z,5.43
2022-10-18T02:56:51.213Z,5.42
2022-10-18T02:58:53.248Z,5.39
2022-10-18T03:00:56.789Z,5.42
2022-10-18T03:03:01.603Z,5.42
2022-10-18T03:05:03.917Z,5.17
2022-10-18T03:07:05.982Z,5.38
2022-10-18T03:09:10.769Z,5.34
2022-10-18T03:11:13.328Z,5.27
2022-10-18T03:13:15.677Z,5.33
2022-10-18T03:15:17.920Z,5.35
2022-10-18T03:17:20.130Z,5.28
2022-10-18T03:19:22.346Z,5.27
2022-10-18T03:21:24.397Z,5.28
2022-10-18T03:23:26.587Z,5.20
2022-10-18T03:25:32.158Z,5.30
2022-10-18T03:27:34.507Z,5.25
2022-10-18T03:29:36.500Z,5.29
2022-10-18T03:31:38.815Z,5.08
2022-10-18T03:33:40.977Z,5.27
2022-10-18T03:35:43.646Z,5.29
2022-10-18T03:37:46.133Z,5.25
2022-10-18T03:39:48.042Z,5.24
2022-10-18T03:41:50.725Z,5.21
2022-10-18T03:43:52.821Z,5.18
2022-10-18T03:45:54.971Z,5.15
2022-10-18T03:47:57.411Z,5.07
2022-10-18T03:49:59.969Z,5.01
2022-10-18T03:52:02.187Z,5.06
2022-10-18T03:54:04.264Z,5.03
2022-10-18T03:56:06.585Z,4.96
2022-10-18T03:58:08.627Z,4.99
2022-10-18T04:00:11.367Z,4.95
2022-10-18T04:02:16.297Z,4.95
2022-10-18T04:04:18.867Z,4.92
2022-10-18T04:06:21.254Z,4.89
2022-10-18T04:08:23.458Z,4.88
2022-10-18T04:10:26.142Z,4.90
2022-10-18T04:12:31.251Z,4.87
2022-10-18T04:14:33.852Z,4.95
2022-10-18T04:18:43.290Z,4.98
2022-10-18T04:20:45.464Z,5.04
2022-10-18T04:22:48.961Z,5.10
2022-10-18T04:24:53.435Z,5.15
2022-10-18T04:26:55.489Z,5.25
2022-10-18T04:28:57.720Z,5.33
2022-10-18T04:31:00.015Z,5.40
2022-10-18T04:33:02.043Z,5.44
2022-10-18T04:35:05.203Z,5.46
2022-10-18T04:37:07.302Z,5.57
2022-10-18T04:39:09.390Z,5.61
2022-10-18T04:41:11.712Z,5.66
2022-10-18T04:43:13.915Z,5.62
2022-10-18T04:45:17.378Z,5.80
2022-10-18T04:47:19.530Z,5.78
2022-10-18T04:49:21.769Z,5.90
2022-10-18T04:51:24.150Z,5.90
2022-10-18T04:53:29.254Z,6.02
2022-10-18T04:55:56.196Z,6.07
2022-10-18T04:58:22.758Z,6.05
2022-10-18T05:00:24.849Z,6.24
2022-10-18T05:02:27.053Z,6.31
2022-10-18T05:04:32.141Z,6.35
2022-10-18T05:06:34.209Z,6.42
2022-10-18T05:09:10.206Z,6.43
2022-10-18T05:11:12.482Z,6.45
2022-10-18T05:13:14.496Z,6.51
2022-10-18T05:15:16.711Z,6.55
2022-10-18T05:17:18.798Z,6.55
2022-10-18T05:19:23.659Z,6.55
2022-10-18T05:21:26.261Z,6.62
2022-10-18T05:23:28.503Z,6.57
2022-10-18T05:25:32.865Z,6.62
2022-10-18T05:27:35.000Z,6.51
2022-10-18T05:29:37.761Z,6.65
2022-10-18T05:31:39.876Z,6.65
2022-10-18T05:33:44.806Z,6.63
2022-10-18T05:35:47.113Z,6.76
2022-10-18T05:37:49.336Z,6.79
2022-10-18T05:39:51.353Z,6.75
2022-10-18T05:41:53.992Z,6.83
2022-10-18T05:43:56.221Z,6.83
2022-10-18T05:45:58.503Z,6.82
2022-10-18T05:48:01.343Z,6.85
2022-10-18T05:50:03.786Z,6.82
2022-10-18T05:52:06.104Z,6.81
2022-10-18T05:54:08.178Z,6.91
2022-10-18T05:56:12.118Z,6.93
2022-10-18T05:58:14.407Z,6.93
2022-10-18T06:00:18.140Z,6.98
2022-10-18T06:02:20.291Z,6.82
2022-10-18T06:04:22.651Z,6.94
2022-10-18T06:06:24.722Z,6.93
2022-10-18T06:08:27.074Z,6.91
2022-10-18T06:10:29.158Z,6.85
2022-10-18T06:12:33.753Z,6.90
2022-10-18T06:14:39.481Z,6.92
2022-10-18T06:16:41.604Z,6.92
2022-10-18T06:18:43.951Z,6.91
2022-10-18T06:20:45.861Z,6.89
2022-10-18T06:22:47.947Z,6.86
2022-10-18T06:24:53.750Z,6.85
2022-10-18T06:26:58.777Z,6.78
2022-10-18T06:29:00.977Z,6.85
2022-10-18T06:31:05.248Z,6.88
2022-10-18T06:33:07.485Z,6.90
2022-10-18T06:35:09.799Z,6.82
2022-10-18T06:37:12.236Z,6.91
2022-10-18T06:39:14.394Z,6.93
2022-10-18T06:41:18.233Z,6.85
2022-10-18T06:43:21.650Z,6.81
2022-10-18T06:45:23.956Z,6.98
2022-10-18T06:47:26.128Z,6.85
2022-10-18T06:49:28.443Z,6.97
2022-10-18T06:51:30.487Z,7.02
2022-10-18T06:53:43.697Z,7.12
2022-10-18T06:55:53.381Z,7.18
2022-10-18T06:57:55.475Z,7.21
2022-10-18T06:59:57.886Z,7.23
2022-10-18T07:01:59.898Z,7.27
2022-10-18T07:04:02.142Z,7.27
2022-10-18T07:06:06.347Z,7.20
2022-10-18T07:08:08.406Z,7.27
2022-10-18T07:10:13.029Z,7.25
2022-10-18T07:12:17.873Z,7.29
2022-10-18T07:14:19.927Z,7.34
2022-10-18T07:16:22.179Z,7.40
2022-10-18T07:18:24.197Z,7.40
2022-10-18T07:20:27.531Z,7.40
2022-10-18T07:22:30.481Z,7.40
2022-10-18T07:26:40.049Z,7.56
2022-10-18T07:28:44.024Z,7.51
2022-10-18T07:30:46.157Z,7.62
2022-10-18T07:32:48.310Z,7.56
2022-10-18T07:34:50.431Z,7.59
2022-10-18T07:36:54.778Z,7.55
2022-10-18T07:38:57.243Z,7.59
2022-10-18T07:41:06.448Z,7.60
2022-10-18T07:43:12.000Z,7.59
2022-10-18T07:45:14.499Z,7.50
2022-10-18T07:47:16.772Z,7.61
2022-10-18T07:49:18.901Z,7.54
2022-10-18T07:51:21.827Z,7.51
2022-10-18T07:53:24.500Z,7.31
2022-10-18T07:55:26.669Z,7.24
2022-10-18T07:57:28.826Z,7.29
2022-10-18T07:59:30.956Z,7.32
2022-10-18T08:01:34.600Z,7.24
2022-10-18T08:03:37.874Z,7.29
2022-10-18T08:06:03.656Z,7.21
2022-10-18T08:08:08.011Z,7.18
2022-10-18T08:10:49.614Z,7.29
2022-10-18T08:12:53.961Z,7.29
2022-10-18T08:15:13.390Z,7.26
2022-10-18T08:17:43.493Z,6.86
2022-10-18T08:20:11.484Z,6.97
2022-10-18T08:22:19.151Z,6.93
2022-10-18T08:24:24.490Z,7.14
2022-10-18T08:26:26.794Z,7.12
2022-10-18T08:28:29.213Z,7.13
2022-10-18T08:30:31.417Z,7.11
2022-10-18T08:32:34.128Z,7.12
2022-10-18T08:36:38.772Z,7.11
2022-10-18T08:38:42.642Z,7.06
2022-10-18T08:40:50.464Z,6.92
2022-10-18T08:43:21.986Z,7.14
2022-10-18T08:45:40.833Z,7.11
2022-10-18T08:47:49.525Z,7.09
2022-10-18T08:49:56.891Z,7.10
2022-10-18T08:52:01.960Z,7.12
2022-10-18T08:54:16.429Z,7.10
2022-10-18T08:56:24.318Z,7.20
2022-10-18T08:58:30.980Z,7.20
2022-10-18T09:00:40.852Z,7.21
2022-10-18T09:03:17.666Z,7.28
2022-10-18T09:05:32.035Z,7.31
2022-10-18T09:07:51.805Z,7.28
2022-10-18T09:10:19.925Z,7.34
2022-10-18T09:12:27.605Z,7.38
2022-10-18T09:14:35.859Z,7.41
2022-10-18T09:16:55.863Z,7.40
2022-10-18T09:19:18.454Z,7.47
2022-10-18T09:21:26.536Z,7.49
2022-10-18T09:23:48.737Z,7.47
2022-10-18T09:26:01.605Z,7.54
2022-10-18T09:28:27.308Z,7.65
2022-10-18T09:30:44.759Z,7.72
2022-10-18T09:32:49.851Z,7.79
2022-10-18T09:35:15.174Z,7.80
2022-10-18T09:37:20.235Z,7.83
2022-10-18T09:39:28.642Z,7.78
2022-10-18T09:41:39.922Z,7.97
2022-10-18T09:44:03.488Z,8.03
2022-10-18T09:46:07.199Z,8.03
2022-10-18T09:48:21.321Z,8.16
2022-10-18T09:50:38.426Z,8.17
2022-10-18T09:53:00.189Z,8.20
2022-10-18T09:55:13.079Z,8.27
2022-10-18T09:57:27.105Z,8.35
2022-10-18T09:59:47.459Z,8.41
2022-10-18T10:01:52.033Z,8.47
2022-10-18T10:03:54.015Z,8.57
2022-10-18T10:06:29.633Z,8.67
2022-10-18T10:08:35.495Z,8.72
2022-10-18T10:10:45.993Z,8.66
2022-10-18T10:12:49.482Z,8.79
2022-10-18T10:14:52.272Z,8.88
2022-10-18T10:16:56.325Z,8.98
2022-10-18T10:18:58.494Z,8.92
2022-10-18T10:21:13.860Z,9.03
2022-10-18T10:23:26.971Z,9.10
2022-10-18T10:25:34.947Z,9.22
2022-10-18T10:27:43.794Z,9.17
2022-10-18T10:29:47.063Z,9.34
2022-10-18T10:32:03.283Z,9.41
2022-10-18T10:34:07.008Z,9.44
2022-10-18T10:36:21.387Z,9.44
2022-10-18T10:38:26.080Z,9.54
2022-10-18T10:40:31.494Z,9.59
2022-10-18T10:42:38.089Z,9.60
2022-10-18T10:44:57.175Z,9.65
2022-10-18T10:46:59.959Z,9.74
2022-10-18T10:51:40.479Z,9.84
2022-10-18T10:53:47.851Z,9.83
2022-10-18T10:55:54.492Z,9.91
2022-10-18T10:57:57.066Z,9.97
2022-10-18T11:00:00.208Z,9.96
2022-10-18T11:02:29.334Z,10.02
2022-10-18T11:04:32.174Z,10.01
2022-10-18T11:06:42.427Z,10.08
2022-10-18T11:11:14.682Z,10.30
2022-10-18T11:13:24.182Z,10.38
2022-10-18T11:15:53.629Z,10.41
2022-10-18T11:18:17.536Z,10.45
2022-10-18T11:20:38.078Z,10.46
2022-10-18T11:23:02.166Z,10.47
2022-10-18T11:25:06.293Z,10.46
2022-10-18T11:27:37.691Z,10.50
2022-10-18T11:30:02.130Z,10.54
2022-10-18T11:32:13.624Z,10.59
2022-10-18T11:34:31.464Z,10.67
2022-10-18T11:37:22.907Z,10.73
2022-10-18T11:39:41.535Z,10.78
2022-10-18T11:41:46.224Z,10.82
2022-10-18T11:44:02.582Z,10.75
2022-10-18T11:46:31.321Z,10.89
2022-10-18T11:48:45.722Z,10.92
2022-10-18T11:51:02.815Z,10.96
2022-10-18T11:53:26.896Z,11.01
2022-10-18T11:55:32.053Z,11.05
2022-10-18T11:58:00.518Z,11.09
2022-10-18T12:03:03.601Z,11.15
2022-10-18T12:05:24.458Z,11.13
2022-10-18T12:07:33.245Z,11.19
2022-10-18T12:09:41.128Z,11.16
2022-10-18T12:12:01.690Z,11.28
2022-10-18T12:14:28.382Z,11.33
2022-10-18T12:16:50.987Z,11.29
2022-10-18T12:19:02.887Z,11.39
2022-10-18T12:21:06.850Z,11.40
2022-10-18T12:23:20.867Z,11.43
2022-10-18T12:25:23.710Z,11.44
2022-10-18T12:27:47.200Z,11.47
2022-10-18T12:30:03.872Z,11.53
2022-10-18T12:32:11.518Z,11.58
2022-10-18T12:34:22.798Z,11.65
2022-10-18T12:36:57.200Z,11.66
2022-10-18T12:39:03.280Z,11.70
2022-10-18T12:41:08.939Z,11.63
2022-10-18T12:43:18.560Z,11.67
2022-10-18T12:45:35.081Z,11.72
2022-10-18T12:47:41.619Z,11.64
2022-10-18T12:49:44.631Z,11.72
2022-10-18T12:51:59.915Z,11.73
2022-10-18T12:54:02.994Z,11.81
2022-10-18T12:56:29.770Z,11.86
2022-10-18T12:58:33.078Z,11.77
2022-10-18T13:00:35.258Z,11.92
2022-10-18T13:02:39.841Z,12.00
2022-10-18T13:04:42.398Z,12.06
2022-10-18T13:07:06.644Z,12.16
2022-10-18T13:09:21.370Z,12.24
2022-10-18T13:11:33.441Z,12.25
2022-10-18T13:16:24.471Z,12.33
2022-10-18T13:18:43.386Z,12.32
2022-10-18T13:21:33.766Z,12.33
2022-10-18T13:23:57.650Z,12.29
2022-10-18T13:26:32.121Z,12.27
2022-10-18T13:29:07.434Z,12.27
2022-10-18T13:31:34.706Z,12.27
2022-10-18T13:33:39.534Z,12.26
2022-10-18T13:35:55.120Z,12.30
2022-10-18T13:38:00.377Z,12.26
2022-10-18T13:40:25.559Z,12.33
2022-10-18T13:42:33.596Z,12.32
2022-10-18T13:44:43.735Z,12.36
2022-10-18T13:46:46.006Z,12.41
2022-10-18T13:48:53.811Z,12.36
2022-10-18T13:51:21.488Z,12.34
2022-10-18T13:53:45.450Z,12.45
2022-10-18T13:55:49.822Z,12.35
2022-10-18T13:58:19.046Z,12.46
2022-10-18T14:00:44.746Z,12.48
2022-10-18T14:03:31.682Z,12.49
2022-10-18T14:06:09.965Z,12.47
2022-10-18T14:08:49.394Z,12.46
2022-10-18T14:11:04.303Z,12.46
2022-10-18T14:13:18.887Z,12.39
2022-10-18T14:15:29.074Z,12.39
2022-10-18T14:18:13.498Z,12.43
2022-10-18T14:20:55.341Z,12.35
2022-10-18T14:23:29.426Z,12.31
2022-10-18T14:25:36.036Z,12.25
2022-10-18T14:28:16.757Z,12.16
2022-10-18T14:30:28.118Z,12.07
2022-10-18T14:32:33.541Z,11.96
2022-10-18T14:34:48.081Z,11.52
2022-10-18T14:37:01.570Z,11.72
2022-10-18T14:39:22.823Z,11.67
2022-10-18T14:42:08.768Z,11.56
2022-10-18T14:44:29.317Z,11.37
2022-10-18T14:46:57.049Z,11.40
2022-10-18T14:49:16.052Z,11.25
2022-10-18T14:51:32.952Z,11.26
2022-10-18T14:53:44.418Z,11.17
2022-10-18T14:56:29.134Z,11.14
2022-10-18T14:58:41.717Z,11.14
2022-10-18T15:00:50.317Z,11.05
2022-10-18T15:03:12.425Z,11.07
2022-10-18T15:05:20.682Z,11.06
2022-10-18T15:07:38.773Z,11.03
2022-10-18T15:09:44.188Z,10.92
2022-10-18T15:11:55.225Z,10.91
2022-10-18T15:14:19.579Z,10.85
2022-10-18T15:16:38.887Z,10.85
2022-10-18T15:18:41.252Z,10.82
2022-10-18T15:20:45.944Z,10.91
2022-10-18T15:22:48.819Z,10.91
2022-10-18T15:25:06.376Z,10.96
2022-10-18T15:27:24.419Z,10.86
2022-10-18T15:29:32.518Z,10.93
2022-10-18T15:31:37.766Z,10.92
2022-10-18T15:33:39.840Z,10.98
2022-10-18T15:35:42.630Z,10.97
2022-10-18T15:37:47.249Z,10.89
2022-10-18T15:40:29.282Z,11.03
2022-10-18T15:42:36.718Z,10.97
2022-10-18T15:44:51.612Z,10.91
2022-10-18T15:47:12.456Z,10.78
2022-10-18T15:49:45.595Z,10.76
2022-10-18T15:51:50.031Z,10.66
2022-10-18T15:53:56.518Z,10.55
2022-10-18T15:56:22.614Z,10.50
2022-10-18T15:58:27.165Z,10.46
2022-10-18T16:00:29.531Z,10.39
2022-10-18T16:02:33.511Z,10.39
2022-10-18T16:04:39.254Z,10.32
2022-10-18T16:06:43.949Z,10.25
2022-10-18T16:09:18.339Z,10.22
2022-10-18T16:11:24.007Z,9.94
2022-10-18T16:13:29.662Z,10.09
2022-10-18T16:15:33.223Z,10.09
2022-10-18T16:17:35.616Z,10.26
2022-10-18T16:19:40.203Z,10.29
2022-10-18T16:21:44.688Z,10.32
2022-10-18T16:23:48.312Z,10.33
2022-10-18T16:25:51.546Z,10.32
2022-10-18T16:27:53.761Z,10.43
2022-10-18T16:29:56.024Z,10.36
2022-10-18T16:31:58.604Z,10.33
2022-10-18T16:34:04.325Z,10.42
2022-10-18T16:36:14.284Z,10.30
2022-10-18T16:38:34.126Z,10.19
2022-10-18T16:40:40.362Z,10.19
2022-10-18T16:42:48.086Z,10.16
2022-10-18T16:44:50.258Z,10.21
2022-10-18T16:46:54.183Z,10.32
2022-10-18T16:48:58.673Z,10.23
2022-10-18T16:51:01.352Z,10.39
2022-10-18T16:53:03.283Z,10.40
2022-10-18T16:55:06.133Z,10.39
2022-10-18T16:57:13.605Z,10.37
2022-10-18T16:59:29.256Z,10.34
2022-10-18T17:01:31.585Z,10.45
2022-10-18T17:03:34.223Z,10.43
2022-10-18T17:05:36.616Z,10.43
2022-10-18T17:07:38.717Z,10.41
2022-10-18T17:09:41.406Z,10.34
2022-10-18T17:11:43.715Z,10.34
2022-10-18T17:13:46.147Z,10.33
2022-10-18T17:15:50.760Z,10.28
2022-10-18T17:17:53.161Z,10.19
2022-10-18T17:19:56.194Z,10.22
2022-10-18T17:22:02.397Z,10.15
2022-10-18T17:24:06.288Z,10.15
2022-10-18T17:26:28.533Z,9.97
2022-10-18T17:28:32.265Z,10.09
2022-10-18T17:30:38.551Z,9.96
2022-10-18T17:32:44.731Z,9.96
2022-10-18T17:34:48.022Z,9.83
2022-10-18T17:36:50.054Z,9.82
2022-10-18T17:38:53.855Z,9.66
2022-10-18T17:40:57.040Z,9.58
2022-10-18T17:42:59.855Z,9.56
2022-10-18T17:45:04.632Z,9.48
2022-10-18T17:47:11.060Z,9.35
2022-10-18T17:49:14.618Z,9.18
2022-10-18T17:51:17.656Z,9.14
2022-10-18T17:53:23.103Z,9.08
2022-10-18T17:55:25.434Z,9.03
2022-10-18T17:57:27.840Z,8.90
2022-10-18T17:59:29.771Z,8.88
2022-10-18T18:01:32.180Z,8.78
2022-10-18T18:03:34.568Z,8.53
2022-10-18T18:05:37.021Z,8.64
2022-10-18T18:07:39.243Z,8.53
2022-10-18T18:09:41.996Z,8.31
2022-10-18T18:11:44.849Z,8.27
2022-10-18T18:13:48.313Z,8.14
2022-10-18T18:15:50.560Z,8.02
2022-10-18T18:17:57.196Z,7.95
2022-10-18T18:20:03.038Z,7.82
2022-10-18T18:22:05.884Z,7.68
2022-10-18T18:24:10.255Z,7.61
2022-10-18T18:26:14.283Z,7.66
2022-10-18T18:28:16.291Z,7.52
2022-10-18T18:30:18.605Z,7.55
2022-10-18T18:32:20.630Z,7.49
2022-10-18T18:34:22.896Z,7.38
2022-10-18T18:36:26.438Z,7.41
2022-10-18T18:38:28.656Z,7.33
2022-10-18T18:40:30.810Z,7.29
2022-10-18T18:42:33.227Z,7.28
2022-10-18T18:44:38.252Z,7.15
2022-10-18T18:46:40.339Z,7.23
2022-10-18T18:48:43.103Z,7.18
2022-10-18T18:50:50.176Z,7.07
2022-10-18T18:52:52.345Z,7.09
2022-10-18T18:54:54.536Z,6.97
2022-10-18T18:56:57.975Z,6.96
2022-10-18T18:59:00.565Z,6.92
2022-10-18T19:01:19.942Z,6.90
2022-10-18T19:03:22.217Z,6.85
2022-10-18T19:05:25.609Z,6.72
2022-10-18T19:07:27.834Z,6.77
2022-10-18T19:09:29.971Z,6.71
2022-10-18T19:11:35.996Z,6.78
2022-10-18T19:13:38.858Z,6.73
2022-10-18T19:15:40.936Z,6.70
2022-10-18T19:17:43.452Z,6.62
2022-10-18T19:19:45.743Z,6.62
2022-10-18T19:21:59.541Z,6.65
2022-10-18T19:24:02.965Z,6.64
2022-10-18T19:26:13.695Z,6.76
2022-10-18T19:28:15.807Z,6.75
2022-10-18T19:30:20.150Z,6.88
2022-10-18T19:32:22.436Z,6.84
2022-10-18T19:34:25.474Z,7.01
2022-10-18T19:36:28.415Z,7.05
2022-10-18T19:38:30.357Z,7.06
2022-10-18T19:40:32.369Z,7.06
2022-10-18T19:42:38.025Z,7.07
2022-10-18T19:44:41.202Z,7.08
2022-10-18T19:46:43.536Z,7.12
2022-10-18T19:48:45.614Z,7.07
2022-10-18T19:50:50.725Z,7.14
2022-10-18T19:52:52.941Z,7.12
2022-10-18T19:54:55.074Z,7.09
2022-10-18T19:56:57.175Z,7.11
2022-10-18T19:59:00.602Z,7.20
2022-10-18T20:01:05.483Z,7.23
2022-10-18T20:03:08.575Z,7.22
2022-10-18T20:05:13.994Z,7.26
2022-10-18T20:07:16.115Z,6.91
2022-10-18T20:09:30.263Z,7.21
2022-10-18T20:11:37.824Z,7.25
2022-10-18T20:14:10.815Z,6.98
2022-10-18T20:16:30.834Z,7.00
2022-10-18T20:18:43.921Z,6.84
2022-10-18T20:20:56.066Z,6.90
2022-10-18T20:22:58.107Z,7.04
2022-10-18T20:25:00.273Z,7.24
2022-10-18T20:27:02.378Z,7.18
2022-10-18T20:29:04.836Z,7.28
2022-10-18T20:31:18.483Z,7.35
2022-10-18T20:33:20.567Z,7.38
2022-10-18T20:35:22.736Z,7.32
2022-10-18T20:37:24.929Z,7.40
2022-10-18T20:39:26.940Z,7.42
2022-10-18T20:41:34.895Z,7.39
2022-10-18T20:43:37.092Z,7.45
2022-10-18T20:45:39.326Z,7.43
2022-10-18T20:47:41.355Z,7.46
2022-10-18T20:49:43.436Z,7.41
2022-10-18T20:51:45.957Z,7.33
2022-10-18T20:53:48.761Z,7.27
2022-10-18T20:55:50.995Z,7.20
2022-10-18T20:57:53.258Z,7.11
2022-10-18T20:59:55.403Z,7.01
2022-10-18T21:01:57.492Z,6.93
2022-10-18T21:04:05.042Z,6.87
2022-10-18T21:06:19.419Z,6.93
2022-10-18T21:08:21.540Z,6.95
2022-10-18T21:10:24.021Z,6.96
2022-10-18T21:12:28.739Z,6.97
2022-10-18T21:14:31.344Z,6.94
2022-10-18T21:16:35.781Z,7.08
2022-10-18T21:18:40.714Z,7.13
2022-10-18T21:20:43.107Z,7.15
2022-10-18T21:22:46.010Z,7.17
2022-10-18T21:24:50.047Z,7.20
2022-10-18T21:26:52.852Z,7.25
2022-10-18T21:28:58.820Z,7.28
2022-10-18T21:31:12.926Z,7.27
2022-10-18T21:33:15.207Z,7.34
2022-10-18T21:35:17.508Z,7.34
2022-10-18T21:37:19.663Z,7.37
2022-10-18T21:41:31.875Z,7.39
2022-10-18T21:43:33.987Z,7.41
2022-10-18T21:45:36.158Z,7.42
2022-10-18T21:47:38.445Z,7.41
2022-10-18T21:49:40.561Z,7.41
2022-10-18T21:51:43.251Z,7.43
2022-10-18T21:53:47.921Z,7.36
2022-10-18T21:55:49.989Z,7.36
2022-10-18T21:57:52.096Z,7.44
2022-10-18T21:59:56.326Z,7.48
2022-10-18T22:02:01.381Z,7.46
2022-10-18T22:04:07.239Z,7.45
2022-10-18T22:06:15.376Z,7.42
2022-10-18T22:08:17.494Z,7.46
2022-10-18T22:10:19.796Z,7.44
2022-10-18T22:12:21.941Z,7.46
2022-10-18T22:14:24.201Z,7.42
2022-10-18T22:16:26.681Z,7.39
2022-10-18T22:18:28.943Z,7.41
2022-10-18T22:20:31.243Z,7.38
2022-10-18T22:22:33.906Z,7.27
2022-10-18T22:24:39.276Z,7.32
2022-10-18T22:26:43.259Z,7.36
2022-10-18T22:28:46.423Z,7.32
2022-10-18T22:30:48.700Z,7.36
2022-10-18T22:32:50.821Z,7.38
2022-10-18T22:34:53.493Z,7.34
2022-10-18T22:36:56.185Z,7.37
2022-10-18T22:38:58.635Z,7.43
2022-10-18T22:41:08.458Z,7.48
2022-10-18T22:43:11.305Z,7.43
2022-10-18T22:45:13.534Z,7.49
2022-10-18T22:47:15.569Z,7.48
2022-10-18T22:49:17.772Z,7.29
2022-10-18T22:51:21.033Z,7.43
2022-10-18T22:53:23.355Z,7.49
2022-10-18T22:55:25.493Z,7.48
2022-10-18T22:57:29.659Z,7.45
2022-10-18T22:59:31.899Z,7.50
2022-10-18T23:01:34.890Z,7.53
2022-10-18T23:03:37.640Z,7.48
2022-10-18T23:05:41.563Z,7.43
2022-10-18T23:07:48.982Z,7.56
2022-10-18T23:09:51.342Z,7.51
2022-10-18T23:11:53.396Z,7.54
2022-10-18T23:13:55.666Z,7.48
2022-10-18T23:16:04.654Z,7.55
2022-10-18T23:18:07.642Z,7.46
2022-10-18T23:20:10.144Z,7.51
2022-10-18T23:22:15.039Z,7.52
2022-10-18T23:24:17.103Z,7.56
2022-10-18T23:26:22.526Z,7.57
2022-10-18T23:28:25.300Z,7.53
2022-10-18T23:30:27.523Z,7.53
2022-10-18T23:32:29.703Z,7.58
2022-10-18T23:34:32.079Z,7.54
2022-10-18T23:36:34.478Z,7.57
2022-10-18T23:38:38.864Z,7.58
2022-10-18T23:40:41.764Z,7.50
2022-10-18T23:42:43.777Z,7.51
2022-10-18T23:44:46.087Z,7.54
2022-10-18T23:46:48.070Z,7.56
2022-10-18T23:48:50.840Z,7.53
2022-10-18T23:50:52.955Z,7.59
2022-10-18T23:52:55.075Z,7.53
2022-10-18T23:54:57.183Z,7.55
2022-10-18T23:56:59.479Z,7.64
2022-10-18T23:59:01.471Z,7.62
